sensor_id;sensor_type;location;lat;lon;timestamp;pressure;altitude;pressure_sealevel;temperature;humidity
13420;BME280;6781;58.440;15.470;2023-06-22T00:01:16;101361.72;;;18.53;100.00
13420;BME280;6781;58.440;15.470;2023-06-22T00:03:43;101359.25;;;18.69;100.00
13420;BME280;6781;58.440;15.470;2023-06-22T00:06:10;101391.75;;;18.68;100.00
13420;BME280;6781;58.440;15.470;2023-06-22T00:08:38;101437.63;;;18.74;100.00
13420;BME280;6781;58.440;15.470;2023-06-22T00:11:05;101283.81;;;17.74;100.00
13420;BME280;6781;58.440;15.470;2023-06-22T00:13:33;101408.66;;;18.48;100.00
13420;BME280;6781;58.440;15.470;2023-06-22T00:16:00;101291.03;;;17.45;100.00
13420;BME280;6781;58.440;15.470;2023-06-22T00:18:26;101463.59;;;18.59;100.00
13420;BME280;6781;58.440;15.470;2023-06-22T00:20:56;101374.91;;;18.17;100.00
13420;BME280;6781;58.440;15.470;2023-06-22T00:23:26;101402.28;;;18.33;100.00
13420;BME280;6781;58.440;15.470;2023-06-22T00:25:55;101342.75;;;17.80;100.00
13420;BME280;6781;58.440;15.470;2023-06-22T00:28:22;101387.44;;;18.24;100.00
13420;BME280;6781;58.440;15.470;2023-06-22T00:30:49;101453.81;;;18.61;100.00
13420;BME280;6781;58.440;15.470;2023-06-22T00:33:16;101448.53;;;18.61;100.00
13420;BME280;6781;58.440;15.470;2023-06-22T00:35:43;101408.97;;;18.45;100.00
13420;BME280;6781;58.440;15.470;2023-06-22T00:38:11;101388.03;;;18.17;100.00
13420;BME280;6781;58.440;15.470;2023-06-22T00:40:38;101404.09;;;18.14;100.00
13420;BME280;6781;58.440;15.470;2023-06-22T00:43:08;101439.84;;;18.61;100.00
13420;BME280;6781;58.440;15.470;2023-06-22T00:45:35;101460.31;;;18.57;100.00
13420;BME280;6781;58.440;15.470;2023-06-22T00:48:03;101451.31;;;18.24;100.00
13420;BME280;6781;58.440;15.470;2023-06-22T00:50:33;101408.53;;;17.96;100.00
13420;BME280;6781;58.440;15.470;2023-06-22T00:53:05;101402.38;;;17.87;100.00
13420;BME280;6781;58.440;15.470;2023-06-22T00:55:35;101382.56;;;17.93;100.00
13420;BME280;6781;58.440;15.470;2023-06-22T00:58:06;101360.97;;;17.81;100.00
13420;BME280;6781;58.440;15.470;2023-06-22T01:00:36;101427.81;;;18.23;100.00
13420;BME280;6781;58.440;15.470;2023-06-22T01:03:04;101436.88;;;17.93;100.00
13420;BME280;6781;58.440;15.470;2023-06-22T01:05:34;101445.47;;;17.85;100.00
13420;BME280;6781;58.440;15.470;2023-06-22T01:08:08;101283.56;;;17.05;100.00
13420;BME280;6781;58.440;15.470;2023-06-22T01:10:43;101461.63;;;17.90;100.00
13420;BME280;6781;58.440;15.470;2023-06-22T01:13:18;101445.34;;;18.04;100.00
13420;BME280;6781;58.440;15.470;2023-06-22T01:15:53;101398.97;;;17.50;100.00
13420;BME280;6781;58.440;15.470;2023-06-22T01:18:22;101262.28;;;16.80;100.00
13420;BME280;6781;58.440;15.470;2023-06-22T01:20:52;101334.94;;;17.43;100.00
13420;BME280;6781;58.440;15.470;2023-06-22T01:23:27;101328.19;;;17.40;100.00
13420;BME280;6781;58.440;15.470;2023-06-22T01:26:02;101225.03;;;16.86;100.00
13420;BME280;6781;58.440;15.470;2023-06-22T01:28:41;101309.16;;;17.38;100.00
13420;BME280;6781;58.440;15.470;2023-06-22T01:31:10;101340.13;;;17.52;100.00
13420;BME280;6781;58.440;15.470;2023-06-22T01:33:42;101334.88;;;17.52;100.00
13420;BME280;6781;58.440;15.470;2023-06-22T01:36:10;101283.53;;;17.32;100.00
13420;BME280;6781;58.440;15.470;2023-06-22T01:38:38;101264.91;;;17.08;100.00
13420;BME280;6781;58.440;15.470;2023-06-22T01:41:06;101340.63;;;17.66;100.00
13420;BME280;6781;58.440;15.470;2023-06-22T01:43:33;101276.56;;;17.23;100.00
13420;BME280;6781;58.440;15.470;2023-06-22T01:46:04;101287.44;;;17.28;100.00
13420;BME280;6781;58.440;15.470;2023-06-22T01:48:32;101240.59;;;16.88;100.00
13420;BME280;6781;58.440;15.470;2023-06-22T01:50:59;101234.16;;;17.10;100.00
13420;BME280;6781;58.440;15.470;2023-06-22T01:53:27;101256.75;;;17.11;100.00
13420;BME280;6781;58.440;15.470;2023-06-22T01:55:54;101215.44;;;16.77;100.00
13420;BME280;6781;58.440;15.470;2023-06-22T01:58:23;101255.34;;;17.16;100.00
13420;BME280;6781;58.440;15.470;2023-06-22T02:00:56;101289.22;;;17.28;100.00
13420;BME280;6781;58.440;15.470;2023-06-22T02:03:30;101274.84;;;17.32;100.00
13420;BME280;6781;58.440;15.470;2023-06-22T02:08:38;101240.22;;;17.28;100.00
13420;BME280;6781;58.440;15.470;2023-06-22T02:11:08;101257.13;;;17.34;100.00
13420;BME280;6781;58.440;15.470;2023-06-22T02:13:36;101111.44;;;16.50;100.00
13420;BME280;6781;58.440;15.470;2023-06-22T02:16:08;101253.66;;;17.25;100.00
13420;BME280;6781;58.440;15.470;2023-06-22T02:18:37;101064.34;;;16.23;100.00
13420;BME280;6781;58.440;15.470;2023-06-22T02:21:05;101083.88;;;16.28;100.00
13420;BME280;6781;58.440;15.470;2023-06-22T02:23:32;101170.13;;;16.67;100.00
13420;BME280;6781;58.440;15.470;2023-06-22T02:26:01;101239.47;;;17.18;100.00
13420;BME280;6781;58.440;15.470;2023-06-22T02:28:28;101065.94;;;16.06;100.00
13420;BME280;6781;58.440;15.470;2023-06-22T02:30:55;101138.56;;;16.59;100.00
13420;BME280;6781;58.440;15.470;2023-06-22T02:33:22;101219.69;;;17.06;100.00
13420;BME280;6781;58.440;15.470;2023-06-22T02:35:53;101189.38;;;16.76;100.00
13420;BME280;6781;58.440;15.470;2023-06-22T02:38:20;101233.63;;;17.06;100.00
13420;BME280;6781;58.440;15.470;2023-06-22T02:40:49;101118.25;;;16.43;100.00
13420;BME280;6781;58.440;15.470;2023-06-22T02:43:17;101232.97;;;17.22;100.00
13420;BME280;6781;58.440;15.470;2023-06-22T02:45:44;101195.19;;;17.15;100.00
13420;BME280;6781;58.440;15.470;2023-06-22T02:48:11;101093.06;;;16.60;100.00
13420;BME280;6781;58.440;15.470;2023-06-22T02:50:41;101142.00;;;16.87;100.00
13420;BME280;6781;58.440;15.470;2023-06-22T02:53:09;101175.88;;;17.16;100.00
13420;BME280;6781;58.440;15.470;2023-06-22T02:55:36;101196.38;;;17.38;100.00
13420;BME280;6781;58.440;15.470;2023-06-22T02:58:05;101097.16;;;16.72;100.00
13420;BME280;6781;58.440;15.470;2023-06-22T03:00:32;101195.47;;;17.47;100.00
13420;BME280;6781;58.440;15.470;2023-06-22T03:02:59;101148.75;;;17.25;100.00
13420;BME280;6781;58.440;15.470;2023-06-22T03:05:26;101073.78;;;16.79;100.00
13420;BME280;6781;58.440;15.470;2023-06-22T03:07:53;101075.38;;;16.89;100.00
13420;BME280;6781;58.440;15.470;2023-06-22T03:10:21;101193.53;;;17.49;100.00
13420;BME280;6781;58.440;15.470;2023-06-22T03:12:50;101194.13;;;17.43;100.00
13420;BME280;6781;58.440;15.470;2023-06-22T03:15:17;101197.56;;;17.62;100.00
13420;BME280;6781;58.440;15.470;2023-06-22T03:17:44;101038.53;;;16.73;100.00
13420;BME280;6781;58.440;15.470;2023-06-22T03:20:11;101003.63;;;16.55;100.00
13420;BME280;6781;58.440;15.470;2023-06-22T03:22:39;101188.81;;;17.71;100.00
13420;BME280;6781;58.440;15.470;2023-06-22T03:25:07;100996.50;;;16.30;100.00
13420;BME280;6781;58.440;15.470;2023-06-22T03:27:40;101192.38;;;17.87;100.00
13420;BME280;6781;58.440;15.470;2023-06-22T03:30:09;101170.25;;;17.90;100.00
13420;BME280;6781;58.440;15.470;2023-06-22T03:32:37;101177.50;;;17.96;100.00
13420;BME280;6781;58.440;15.470;2023-06-22T03:35:04;101056.00;;;17.26;100.00
13420;BME280;6781;58.440;15.470;2023-06-22T03:37:32;101132.75;;;17.54;100.00
13420;BME280;6781;58.440;15.470;2023-06-22T03:39:59;101180.03;;;17.80;100.00
13420;BME280;6781;58.440;15.470;2023-06-22T03:42:26;101170.88;;;17.84;100.00
13420;BME280;6781;58.440;15.470;2023-06-22T03:44:54;101110.03;;;17.45;100.00
13420;BME280;6781;58.440;15.470;2023-06-22T03:47:22;101173.78;;;17.81;100.00
13420;BME280;6781;58.440;15.470;2023-06-22T03:49:49;101150.03;;;17.82;100.00
13420;BME280;6781;58.440;15.470;2023-06-22T03:52:20;101115.88;;;17.56;100.00
13420;BME280;6781;58.440;15.470;2023-06-22T03:54:47;101152.84;;;17.89;100.00
13420;BME280;6781;58.440;15.470;2023-06-22T03:57:14;101124.56;;;17.75;100.00
13420;BME280;6781;58.440;15.470;2023-06-22T03:59:41;101071.53;;;17.45;100.00
13420;BME280;6781;58.440;15.470;2023-06-22T04:02:10;101082.28;;;17.60;100.00
13420;BME280;6781;58.440;15.470;2023-06-22T04:04:37;101112.41;;;17.74;100.00
13420;BME280;6781;58.440;15.470;2023-06-22T04:07:04;101150.91;;;17.91;100.00
13420;BME280;6781;58.440;15.470;2023-06-22T04:09:31;101131.53;;;17.92;100.00
13420;BME280;6781;58.440;15.470;2023-06-22T04:11:58;100984.69;;;16.97;100.00
13420;BME280;6781;58.440;15.470;2023-06-22T04:14:26;101024.22;;;17.03;100.00
13420;BME280;6781;58.440;15.470;2023-06-22T04:16:53;100978.34;;;16.81;100.00
13420;BME280;6781;58.440;15.470;2023-06-22T04:19:21;101091.59;;;17.54;100.00
13420;BME280;6781;58.440;15.470;2023-06-22T04:21:49;101026.69;;;17.05;100.00
13420;BME280;6781;58.440;15.470;2023-06-22T04:24:16;101069.56;;;17.47;100.00
13420;BME280;6781;58.440;15.470;2023-06-22T04:26:43;100970.56;;;16.89;100.00
13420;BME280;6781;58.440;15.470;2023-06-22T04:29:13;100931.66;;;16.59;100.00
13420;BME280;6781;58.440;15.470;2023-06-22T04:31:40;101110.91;;;17.71;100.00
13420;BME280;6781;58.440;15.470;2023-06-22T04:34:07;101106.22;;;17.39;100.00
13420;BME280;6781;58.440;15.470;2023-06-22T04:36:37;100912.22;;;16.26;100.00
13420;BME280;6781;58.440;15.470;2023-06-22T04:39:06;100934.78;;;16.45;100.00
13420;BME280;6781;58.440;15.470;2023-06-22T04:41:35;100955.88;;;16.61;100.00
13420;BME280;6781;58.440;15.470;2023-06-22T04:44:11;100971.47;;;16.80;100.00
13420;BME280;6781;58.440;15.470;2023-06-22T04:46:39;101147.38;;;18.08;100.00
13420;BME280;6781;58.440;15.470;2023-06-22T04:49:07;101130.84;;;18.16;100.00
13420;BME280;6781;58.440;15.470;2023-06-22T04:51:41;101019.44;;;17.76;100.00
13420;BME280;6781;58.440;15.470;2023-06-22T04:54:09;100861.13;;;16.83;100.00
13420;BME280;6781;58.440;15.470;2023-06-22T04:56:36;101116.66;;;18.35;100.00
13420;BME280;6781;58.440;15.470;2023-06-22T04:59:06;101087.69;;;18.18;100.00
13420;BME280;6781;58.440;15.470;2023-06-22T05:01:34;101056.41;;;17.91;100.00
13420;BME280;6781;58.440;15.470;2023-06-22T05:04:01;101030.09;;;17.75;100.00
13420;BME280;6781;58.440;15.470;2023-06-22T05:06:30;100988.31;;;17.55;100.00
13420;BME280;6781;58.440;15.470;2023-06-22T05:08:59;101074.13;;;17.89;100.00
13420;BME280;6781;58.440;15.470;2023-06-22T05:11:26;101109.06;;;18.24;100.00
13420;BME280;6781;58.440;15.470;2023-06-22T05:13:53;100936.66;;;16.88;100.00
13420;BME280;6781;58.440;15.470;2023-06-22T05:16:21;101037.59;;;17.70;100.00
13420;BME280;6781;58.440;15.470;2023-06-22T05:18:51;101089.31;;;18.11;100.00
13420;BME280;6781;58.440;15.470;2023-06-22T05:21:21;100969.38;;;17.44;100.00
13420;BME280;6781;58.440;15.470;2023-06-22T05:23:49;101107.78;;;18.36;100.00
13420;BME280;6781;58.440;15.470;2023-06-22T05:26:17;101103.19;;;18.30;100.00
13420;BME280;6781;58.440;15.470;2023-06-22T05:28:45;100866.66;;;16.80;100.00
13420;BME280;6781;58.440;15.470;2023-06-22T05:31:13;101026.16;;;17.79;100.00
13420;BME280;6781;58.440;15.470;2023-06-22T05:33:40;101107.84;;;18.52;100.00
13420;BME280;6781;58.440;15.470;2023-06-22T05:36:07;101097.66;;;18.49;100.00
13420;BME280;6781;58.440;15.470;2023-06-22T05:38:35;101081.56;;;18.52;100.00
13420;BME280;6781;58.440;15.470;2023-06-22T05:41:02;101071.06;;;18.52;100.00
13420;BME280;6781;58.440;15.470;2023-06-22T05:43:31;101070.81;;;18.71;100.00
13420;BME280;6781;58.440;15.470;2023-06-22T05:45:59;100936.03;;;18.12;100.00
13420;BME280;6781;58.440;15.470;2023-06-22T05:48:27;101009.97;;;18.58;100.00
13420;BME280;6781;58.440;15.470;2023-06-22T05:50:54;101042.72;;;18.80;100.00
13420;BME280;6781;58.440;15.470;2023-06-22T05:53:21;100856.25;;;17.81;100.00
13420;BME280;6781;58.440;15.470;2023-06-22T05:55:48;101036.81;;;18.86;100.00
13420;BME280;6781;58.440;15.470;2023-06-22T05:58:17;100968.94;;;18.49;100.00
13420;BME280;6781;58.440;15.470;2023-06-22T06:00:45;101016.94;;;19.00;100.00
13420;BME280;6781;58.440;15.470;2023-06-22T06:03:13;100958.59;;;18.56;100.00
13420;BME280;6781;58.440;15.470;2023-06-22T06:05:43;101006.75;;;18.89;100.00
13420;BME280;6781;58.440;15.470;2023-06-22T06:08:11;101026.13;;;18.88;100.00
13420;BME280;6781;58.440;15.470;2023-06-22T06:10:38;100795.19;;;17.54;100.00
13420;BME280;6781;58.440;15.470;2023-06-22T06:13:05;100868.91;;;18.02;100.00
13420;BME280;6781;58.440;15.470;2023-06-22T06:15:33;100952.22;;;18.74;100.00
13420;BME280;6781;58.440;15.470;2023-06-22T06:18:01;100921.81;;;18.47;100.00
13420;BME280;6781;58.440;15.470;2023-06-22T06:20:31;101009.00;;;19.08;100.00
13420;BME280;6781;58.440;15.470;2023-06-22T06:22:58;100955.50;;;18.84;100.00
13420;BME280;6781;58.440;15.470;2023-06-22T06:25:25;100952.03;;;18.84;100.00
13420;BME280;6781;58.440;15.470;2023-06-22T06:27:52;101002.09;;;19.23;100.00
13420;BME280;6781;58.440;15.470;2023-06-22T06:30:20;100988.75;;;19.25;100.00
13420;BME280;6781;58.440;15.470;2023-06-22T06:32:47;100975.09;;;19.29;100.00
13420;BME280;6781;58.440;15.470;2023-06-22T06:35:16;100891.41;;;18.94;100.00
13420;BME280;6781;58.440;15.470;2023-06-22T06:37:45;100893.53;;;18.98;100.00
13420;BME280;6781;58.440;15.470;2023-06-22T06:40:13;100956.31;;;19.57;100.00
13420;BME280;6781;58.440;15.470;2023-06-22T06:42:41;100955.66;;;19.55;100.00
13420;BME280;6781;58.440;15.470;2023-06-22T06:45:10;100856.28;;;18.70;100.00
13420;BME280;6781;58.440;15.470;2023-06-22T06:47:37;100925.16;;;19.21;100.00
13420;BME280;6781;58.440;15.470;2023-06-22T06:50:06;100968.31;;;19.51;100.00
13420;BME280;6781;58.440;15.470;2023-06-22T06:52:34;100905.94;;;19.12;100.00
13420;BME280;6781;58.440;15.470;2023-06-22T06:55:02;100770.25;;;18.48;100.00
13420;BME280;6781;58.440;15.470;2023-06-22T06:57:30;100740.22;;;18.42;100.00
13420;BME280;6781;58.440;15.470;2023-06-22T06:59:57;100812.59;;;18.69;100.00
13420;BME280;6781;58.440;15.470;2023-06-22T07:02:25;100946.72;;;19.64;100.00
13420;BME280;6781;58.440;15.470;2023-06-22T07:04:53;100755.84;;;18.36;100.00
13420;BME280;6781;58.440;15.470;2023-06-22T07:07:25;100959.19;;;19.78;100.00
13420;BME280;6781;58.440;15.470;2023-06-22T07:09:53;100771.78;;;18.90;100.00
13420;BME280;6781;58.440;15.470;2023-06-22T07:12:20;100839.53;;;19.58;100.00
13420;BME280;6781;58.440;15.470;2023-06-22T07:14:49;100954.22;;;20.37;100.00
13420;BME280;6781;58.440;15.470;2023-06-22T07:17:16;100935.16;;;20.58;100.00
13420;BME280;6781;58.440;15.470;2023-06-22T07:19:43;100893.94;;;20.42;100.00
13420;BME280;6781;58.440;15.470;2023-06-22T07:22:10;100914.16;;;20.64;100.00
13420;BME280;6781;58.440;15.470;2023-06-22T07:24:37;100887.53;;;21.03;100.00
13420;BME280;6781;58.440;15.470;2023-06-22T07:27:06;100795.63;;;20.71;100.00
13420;BME280;6781;58.440;15.470;2023-06-22T07:29:33;100792.91;;;20.64;100.00
13420;BME280;6781;58.440;15.470;2023-06-22T07:32:01;100876.50;;;21.59;100.00
13420;BME280;6781;58.440;15.470;2023-06-22T07:34:30;100746.56;;;20.91;100.00
13420;BME280;6781;58.440;15.470;2023-06-22T07:36:57;100826.41;;;21.87;100.00
13420;BME280;6781;58.440;15.470;2023-06-22T07:39:24;100837.78;;;21.87;100.00
13420;BME280;6781;58.440;15.470;2023-06-22T07:41:52;100835.13;;;22.02;100.00
13420;BME280;6781;58.440;15.470;2023-06-22T07:44:20;100793.41;;;21.76;100.00
13420;BME280;6781;58.440;15.470;2023-06-22T07:46:47;100792.91;;;22.08;100.00
13420;BME280;6781;58.440;15.470;2023-06-22T07:49:14;100772.44;;;21.96;100.00
13420;BME280;6781;58.440;15.470;2023-06-22T07:51:42;100646.94;;;21.08;100.00
13420;BME280;6781;58.440;15.470;2023-06-22T07:54:11;100682.81;;;21.94;100.00
13420;BME280;6781;58.440;15.470;2023-06-22T07:56:41;100796.44;;;22.50;100.00
13420;BME280;6781;58.440;15.470;2023-06-22T07:59:08;100770.53;;;22.39;100.00
13420;BME280;6781;58.440;15.470;2023-06-22T08:01:37;100695.88;;;21.74;100.00
13420;BME280;6781;58.440;15.470;2023-06-22T08:04:04;100731.31;;;22.43;100.00
13420;BME280;6781;58.440;15.470;2023-06-22T08:06:32;100565.72;;;21.53;100.00
13420;BME280;6781;58.440;15.470;2023-06-22T08:09:02;100555.03;;;21.61;100.00
13420;BME280;6781;58.440;15.470;2023-06-22T08:11:31;100573.63;;;22.15;100.00
13420;BME280;6781;58.440;15.470;2023-06-22T08:13:59;100724.19;;;22.84;100.00
13420;BME280;6781;58.440;15.470;2023-06-22T08:16:26;100749.91;;;23.03;100.00
13420;BME280;6781;58.440;15.470;2023-06-22T08:18:55;100799.09;;;23.46;100.00
13420;BME280;6781;58.440;15.470;2023-06-22T08:21:23;100561.97;;;20.91;100.00
13420;BME280;6781;58.440;15.470;2023-06-22T08:23:50;100651.03;;;22.09;100.00
13420;BME280;6781;58.440;15.470;2023-06-22T08:26:17;100788.00;;;23.09;100.00
13420;BME280;6781;58.440;15.470;2023-06-22T08:28:44;100762.34;;;22.68;100.00
13420;BME280;6781;58.440;15.470;2023-06-22T08:31:15;100611.88;;;22.26;100.00
13420;BME280;6781;58.440;15.470;2023-06-22T08:33:43;100651.59;;;22.39;100.00
13420;BME280;6781;58.440;15.470;2023-06-22T08:36:13;100583.66;;;22.33;100.00
13420;BME280;6781;58.440;15.470;2023-06-22T08:38:41;100719.88;;;23.51;100.00
13420;BME280;6781;58.440;15.470;2023-06-22T08:41:08;100691.66;;;22.90;100.00
13420;BME280;6781;58.440;15.470;2023-06-22T08:43:35;100716.22;;;23.98;100.00
13420;BME280;6781;58.440;15.470;2023-06-22T08:46:02;100718.25;;;23.50;100.00
13420;BME280;6781;58.440;15.470;2023-06-22T08:48:29;100689.88;;;23.17;100.00
13420;BME280;6781;58.440;15.470;2023-06-22T08:50:56;100764.13;;;23.70;100.00
13420;BME280;6781;58.440;15.470;2023-06-22T08:53:25;100618.72;;;22.74;100.00
13420;BME280;6781;58.440;15.470;2023-06-22T08:55:52;100749.66;;;23.73;100.00
13420;BME280;6781;58.440;15.470;2023-06-22T08:58:19;100721.69;;;24.29;100.00
13420;BME280;6781;58.440;15.470;2023-06-22T09:00:46;100643.81;;;24.11;100.00
13420;BME280;6781;58.440;15.470;2023-06-22T09:03:14;100732.75;;;24.78;100.00
13420;BME280;6781;58.440;15.470;2023-06-22T09:05:41;100740.75;;;25.16;100.00
13420;BME280;6781;58.440;15.470;2023-06-22T09:08:07;100661.56;;;24.17;100.00
13420;BME280;6781;58.440;15.470;2023-06-22T09:10:36;100680.75;;;24.06;100.00
13420;BME280;6781;58.440;15.470;2023-06-22T09:13:03;100699.09;;;24.72;100.00
13420;BME280;6781;58.440;15.470;2023-06-22T09:15:30;100540.03;;;23.16;100.00
13420;BME280;6781;58.440;15.470;2023-06-22T09:17:57;100655.19;;;24.31;100.00
13420;BME280;6781;58.440;15.470;2023-06-22T09:20:24;100637.78;;;23.44;100.00
13420;BME280;6781;58.440;15.470;2023-06-22T09:22:51;100685.00;;;24.26;100.00
13420;BME280;6781;58.440;15.470;2023-06-22T09:25:18;100701.50;;;25.24;100.00
13420;BME280;6781;58.440;15.470;2023-06-22T09:27:48;100703.88;;;25.33;100.00
13420;BME280;6781;58.440;15.470;2023-06-22T09:30:15;100557.59;;;24.08;100.00
13420;BME280;6781;58.440;15.470;2023-06-22T09:32:42;100721.06;;;25.86;100.00
13420;BME280;6781;58.440;15.470;2023-06-22T09:35:09;100668.06;;;25.42;100.00
13420;BME280;6781;58.440;15.470;2023-06-22T09:37:38;100578.13;;;25.20;100.00
13420;BME280;6781;58.440;15.470;2023-06-22T09:40:06;100644.91;;;25.49;100.00
13420;BME280;6781;58.440;15.470;2023-06-22T09:42:37;100727.28;;;26.17;100.00
13420;BME280;6781;58.440;15.470;2023-06-22T09:45:06;100645.50;;;25.26;100.00
13420;BME280;6781;58.440;15.470;2023-06-22T09:47:33;100601.97;;;25.02;100.00
13420;BME280;6781;58.440;15.470;2023-06-22T09:50:00;100681.19;;;26.05;100.00
13420;BME280;6781;58.440;15.470;2023-06-22T09:52:27;100729.81;;;26.12;100.00
13420;BME280;6781;58.440;15.470;2023-06-22T09:54:54;100684.84;;;25.67;100.00
13420;BME280;6781;58.440;15.470;2023-06-22T09:57:21;100586.88;;;24.64;100.00
13420;BME280;6781;58.440;15.470;2023-06-22T09:59:48;100735.13;;;26.12;100.00
13420;BME280;6781;58.440;15.470;2023-06-22T10:02:16;100574.53;;;25.58;100.00
13420;BME280;6781;58.440;15.470;2023-06-22T10:04:46;100638.66;;;25.86;100.00
13420;BME280;6781;58.440;15.470;2023-06-22T10:07:13;100714.19;;;26.40;100.00
13420;BME280;6781;58.440;15.470;2023-06-22T10:09:41;100667.75;;;26.18;100.00
13420;BME280;6781;58.440;15.470;2023-06-22T10:12:10;100535.03;;;25.43;100.00
13420;BME280;6781;58.440;15.470;2023-06-22T10:14:37;100714.50;;;26.99;100.00
13420;BME280;6781;58.440;15.470;2023-06-22T10:17:04;100631.63;;;25.74;100.00
13420;BME280;6781;58.440;15.470;2023-06-22T10:19:34;100583.69;;;26.17;100.00
13420;BME280;6781;58.440;15.470;2023-06-22T10:22:03;100693.63;;;26.29;100.00
13420;BME280;6781;58.440;15.470;2023-06-22T10:24:31;100594.47;;;26.04;100.00
13420;BME280;6781;58.440;15.470;2023-06-22T10:26:58;100579.97;;;26.66;100.00
13420;BME280;6781;58.440;15.470;2023-06-22T10:29:25;100544.56;;;26.66;100.00
13420;BME280;6781;58.440;15.470;2023-06-22T10:31:52;100672.16;;;27.62;99.81
13420;BME280;6781;58.440;15.470;2023-06-22T10:34:18;100619.88;;;26.96;95.17
13420;BME280;6781;58.440;15.470;2023-06-22T10:36:47;100724.19;;;27.76;99.50
13420;BME280;6781;58.440;15.470;2023-06-22T10:39:14;100720.25;;;26.96;97.89
13420;BME280;6781;58.440;15.470;2023-06-22T10:41:42;100544.00;;;24.99;95.51
13420;BME280;6781;58.440;15.470;2023-06-22T10:44:09;100580.91;;;25.75;99.07
13420;BME280;6781;58.440;15.470;2023-06-22T10:46:36;100720.97;;;27.21;96.41
13420;BME280;6781;58.440;15.470;2023-06-22T10:49:03;100652.56;;;27.03;96.08
13420;BME280;6781;58.440;15.470;2023-06-22T10:51:30;100706.75;;;27.39;95.15
13420;BME280;6781;58.440;15.470;2023-06-22T10:53:59;100632.69;;;27.17;92.30
13420;BME280;6781;58.440;15.470;2023-06-22T10:56:26;100666.75;;;27.15;91.71
13420;BME280;6781;58.440;15.470;2023-06-22T10:58:53;100692.31;;;27.05;91.93
13420;BME280;6781;58.440;15.470;2023-06-22T11:01:20;100700.94;;;26.70;89.94
13420;BME280;6781;58.440;15.470;2023-06-22T11:03:47;100674.56;;;26.50;89.28
13420;BME280;6781;58.440;15.470;2023-06-22T11:06:14;100719.19;;;26.85;93.65
13420;BME280;6781;58.440;15.470;2023-06-22T11:08:44;100556.72;;;26.73;92.71
13420;BME280;6781;58.440;15.470;2023-06-22T11:11:12;100678.69;;;27.25;89.41
13420;BME280;6781;58.440;15.470;2023-06-22T11:13:39;100683.59;;;28.33;89.07
13420;BME280;6781;58.440;15.470;2023-06-22T11:16:06;100704.16;;;27.62;85.86
13420;BME280;6781;58.440;15.470;2023-06-22T11:18:33;100601.56;;;26.88;87.44
13420;BME280;6781;58.440;15.470;2023-06-22T11:21:00;100705.50;;;27.53;86.40
13420;BME280;6781;58.440;15.470;2023-06-22T11:23:27;100716.19;;;26.93;86.33
13420;BME280;6781;58.440;15.470;2023-06-22T11:25:55;100575.28;;;26.80;89.94
13420;BME280;6781;58.440;15.470;2023-06-22T11:28:25;100709.09;;;27.47;87.60
13420;BME280;6781;58.440;15.470;2023-06-22T11:30:51;100565.19;;;26.40;87.58
13420;BME280;6781;58.440;15.470;2023-06-22T11:33:19;100679.56;;;26.77;88.90
13420;BME280;6781;58.440;15.470;2023-06-22T11:35:46;100599.59;;;26.83;90.83
13420;BME280;6781;58.440;15.470;2023-06-22T11:38:13;100677.31;;;26.44;88.06
13420;BME280;6781;58.440;15.470;2023-06-22T11:40:40;100684.19;;;26.33;91.42
13420;BME280;6781;58.440;15.470;2023-06-22T11:43:07;100692.09;;;26.40;92.95
13420;BME280;6781;58.440;15.470;2023-06-22T11:45:35;100670.91;;;25.72;93.08
13420;BME280;6781;58.440;15.470;2023-06-22T11:48:02;100702.59;;;26.35;90.85
13420;BME280;6781;58.440;15.470;2023-06-22T11:50:31;100551.81;;;25.80;89.55
13420;BME280;6781;58.440;15.470;2023-06-22T11:53:01;100631.69;;;26.58;91.31
13420;BME280;6781;58.440;15.470;2023-06-22T11:55:28;100565.38;;;26.09;91.43
13420;BME280;6781;58.440;15.470;2023-06-22T11:58:00;100690.66;;;26.74;91.31
13420;BME280;6781;58.440;15.470;2023-06-22T12:00:29;100519.16;;;25.37;89.84
13420;BME280;6781;58.440;15.470;2023-06-22T12:02:59;100712.66;;;26.81;92.49
13420;BME280;6781;58.440;15.470;2023-06-22T12:05:26;100727.16;;;26.30;92.64
13420;BME280;6781;58.440;15.470;2023-06-22T12:07:54;100664.81;;;26.44;91.66
13420;BME280;6781;58.440;15.470;2023-06-22T12:10:21;100656.16;;;26.49;88.38
13420;BME280;6781;58.440;15.470;2023-06-22T12:12:48;100615.06;;;26.75;91.11
13420;BME280;6781;58.440;15.470;2023-06-22T12:15:15;100714.03;;;27.32;89.11
13420;BME280;6781;58.440;15.470;2023-06-22T12:17:43;100597.09;;;25.92;84.93
13420;BME280;6781;58.440;15.470;2023-06-22T12:20:11;100698.91;;;27.02;84.32
13420;BME280;6781;58.440;15.470;2023-06-22T12:22:38;100726.56;;;26.83;85.23
13420;BME280;6781;58.440;15.470;2023-06-22T12:25:06;100715.91;;;26.83;86.63
13420;BME280;6781;58.440;15.470;2023-06-22T12:27:33;100709.03;;;27.23;85.75
13420;BME280;6781;58.440;15.470;2023-06-22T12:30:01;100636.06;;;27.25;84.42
13420;BME280;6781;58.440;15.470;2023-06-22T12:32:29;100593.56;;;26.88;80.94
13420;BME280;6781;58.440;15.470;2023-06-22T12:34:56;100711.38;;;26.53;82.72
13420;BME280;6781;58.440;15.470;2023-06-22T12:37:26;100709.22;;;27.52;86.93
13420;BME280;6781;58.440;15.470;2023-06-22T12:39:54;100681.97;;;27.50;83.53
13420;BME280;6781;58.440;15.470;2023-06-22T12:42:21;100684.44;;;27.63;79.92
13420;BME280;6781;58.440;15.470;2023-06-22T12:44:51;100622.72;;;27.95;81.72
13420;BME280;6781;58.440;15.470;2023-06-22T12:47:21;100690.81;;;27.62;79.50
13420;BME280;6781;58.440;15.470;2023-06-22T12:49:50;100693.72;;;27.72;81.20